Portada
METAR-TAF:

METAR-TAF

Aeropuertos :

Alice Springs, Australia

latitud: 23-48S, longitud: 133-53E, altitud: 545 m

Observación

El informe se hizo hace 21 minutos, a las 01:30 UTC
Viento 12 kt del este-sureste
Temperatura 33°C
Humedad 19%
Presión 1017 hPa
Visibilidad 10 km o más
sin nubes por debajo de 1500 m y sin presencia de cumulonimbus.

METAR: YBAS 190130Z 12012KT CAVOK 33/06 Q1017

Hora: 11:21 (01:51 UTC)

Pronóstico

El informe se hizo hace 2 horas y 32 minutos, a las 23:19 UTC
Pronóstico válido del 19 a las 00 UTC al 19 a las 24 UTC
Viento 14 kt del sureste
Visibilidad 10 km o más
sin nubes por debajo de 1500 m y sin presencia de cumulonimbus.
A partir de las 19 a las 2300 UTC
Viento 16 kt del sureste con ráfagas de 26 kt
Visibilidad 10 km o más
sin nubes por debajo de 1500 m y sin presencia de cumulonimbus.

TAF: YBAS 182319Z 1900/1924 14014KT CAVOK FM192300 13016G26KT CAVOK

Observaciones y pronósticos meteorológicos de más de 4000 aeropuertos (mensajes METAR y TAF).

Los puntos amarillos y rojos representan las estaciones disponibles.

Ponga el ratón en el punto deseado para ver el nombre de la estación.

Haga clic para ver las observaciones y los pronósticos meteorológicos.

Para cambiar el mapa : haga clic en los botones verdes con una cruz de color negro para hacer un zoom, en el botón verde con un guión para alejar o en las flechas verdes para mapas adyacentes.


METAR-TAF: